Time;durP1;ratioP1;P1;durP2;ratioP2;P2;SDS_P1;SDS_P2;PMS_P1;PMS_P2;Temp;Humidity;BMP_temperature;BMP_pressure;BME280_temperature;BME280_humidity;BME280_pressure;Samples;Min_cycle;Max_cycle;Signal;HPM_P1;HPM_P2
2022/08/20 00:00:48;;;;;;;11.55;7.40;;;;;;;21.26;72.31;99790.45;1463773;89;21389;-85
2022/08/20 00:03:20;;;;;;;10.80;8.63;;;;;;;21.25;72.04;99794.20;1463840;88;21330;-83
2022/08/20 00:05:53;;;;;;;14.05;8.93;;;;;;;21.24;71.80;99793.92;1465385;89;21618;-86
2022/08/20 00:08:20;;;;;;;11.38;8.83;;;;;;;21.25;71.59;99803.63;1462353;89;21316;-85
2022/08/20 00:10:50;;;;;;;9.80;8.80;;;;;;;21.25;71.69;99804.97;1473862;89;21411;-85
2022/08/20 00:13:21;;;;;;;12.83;9.30;;;;;;;21.23;71.25;99811.91;1457804;89;21375;-86
2022/08/20 00:15:48;;;;;;;10.18;7.33;;;;;;;21.24;71.61;99811.41;1468300;89;21398;-86
2022/08/20 00:18:14;;;;;;;13.32;8.20;;;;;;;21.21;71.90;99817.27;1468356;89;21389;-85
2022/08/20 00:20:45;;;;;;;14.00;8.78;;;;;;;21.17;72.09;99823.08;1465719;89;21382;-88
2022/08/20 00:23:12;;;;;;;14.87;9.15;;;;;;;21.17;71.75;99827.64;1440665;89;21403;-84
2022/08/20 00:25:40;;;;;;;12.07;8.75;;;;;;;21.13;71.89;99839.41;1465245;89;21397;-86
2022/08/20 00:28:08;;;;;;;15.40;9.05;;;;;;;21.09;71.67;99836.89;1474009;89;21367;-87
2022/08/20 00:30:35;;;;;;;16.55;10.20;;;;;;;21.05;72.13;99837.57;1461494;89;21427;-86
2022/08/20 00:33:06;;;;;;;12.35;9.30;;;;;;;21.03;72.58;99838.31;1475089;89;21507;-85
2022/08/20 00:35:37;;;;;;;16.50;8.35;;;;;;;21.01;72.90;99837.22;1468079;89;22462;-86
2022/08/20 00:38:03;;;;;;;14.83;8.78;;;;;;;21.02;72.99;99838.03;1464409;89;22330;-84
2022/08/20 00:40:41;;;;;;;10.65;9.00;;;;;;;21.00;73.23;99836.91;1465865;89;21574;-85
2022/08/20 00:43:24;;;;;;;16.12;9.75;;;;;;;20.99;72.99;99846.04;1468485;89;21405;-85
2022/08/20 00:45:54;;;;;;;13.35;8.98;;;;;;;20.98;73.28;99849.79;1458565;89;22048;-84
2022/08/20 00:48:19;;;;;;;15.10;11.10;;;;;;;20.94;73.44;99848.59;1455666;89;21603;-85
2022/08/20 00:50:45;;;;;;;19.75;9.53;;;;;;;20.94;73.71;99848.59;1456183;89;21566;-84
2022/08/20 00:53:11;;;;;;;18.60;9.35;;;;;;;20.95;73.90;99850.25;1492868;88;22254;-85
2022/08/20 00:55:38;;;;;;;17.07;10.25;;;;;;;20.94;73.90;99852.62;1484574;87;21375;-83
2022/08/20 00:58:08;;;;;;;13.83;10.32;;;;;;;20.95;74.00;99848.91;1479551;87;21389;-84
2022/08/20 01:00:39;;;;;;;25.90;10.08;;;;;;;20.98;73.96;99839.03;1482744;88;21374;-86
2022/08/20 01:03:08;;;;;;;15.08;9.93;;;;;;;20.99;73.93;99831.24;1483086;88;21404;-85
2022/08/20 01:05:37;;;;;;;22.32;12.10;;;;;;;21.00;73.61;99830.19;1478038;88;21494;-86
2022/08/20 01:10:43;;;;;;;10.98;9.85;;;;;;;21.00;73.19;99825.33;1516245;85;28608;-85
2022/08/20 01:13:14;;;;;;;16.00;9.65;;;;;;;20.92;73.49;99831.88;1491880;88;21641;-85
2022/08/20 01:15:44;;;;;;;15.55;10.90;;;;;;;20.88;73.46;99826.65;1492737;87;21662;-86
2022/08/20 01:18:15;;;;;;;12.70;9.35;;;;;;;20.87;73.68;99828.52;1477939;87;21546;-83
2022/08/20 01:20:52;;;;;;;16.93;10.38;;;;;;;20.87;73.77;99825.02;1482773;87;21566;-86
2022/08/20 01:23:48;;;;;;;16.60;10.80;;;;;;;20.87;73.73;99822.33;1483437;87;22101;-85
2022/08/20 01:26:26;;;;;;;13.85;10.70;;;;;;;20.85;74.07;99817.70;1483389;87;22475;-86
2022/08/20 01:29:11;;;;;;;12.88;9.95;;;;;;;20.83;74.06;99807.69;1471595;88;21529;-86
2022/08/20 01:31:40;;;;;;;18.65;10.35;;;;;;;20.80;74.38;99794.70;1484798;87;21596;-86
2022/08/20 01:34:12;;;;;;;16.67;9.65;;;;;;;20.77;74.43;99787.91;1490123;87;21611;-88
2022/08/20 01:36:47;;;;;;;19.35;9.98;;;;;;;20.75;74.47;99786.53;1480555;87;21515;-86
2022/08/20 01:39:21;;;;;;;14.95;10.38;;;;;;;20.72;74.38;99784.59;1489455;87;22571;-86
2022/08/20 01:42:07;;;;;;;18.20;11.57;;;;;;;20.71;74.43;99772.20;1483271;87;21731;-88
2022/08/20 01:44:37;;;;;;;19.82;10.72;;;;;;;20.69;74.30;99767.56;1492234;88;21529;-86
2022/08/20 01:47:24;;;;;;;15.32;11.15;;;;;;;20.64;74.75;99760.71;1482984;87;21455;-87
2022/08/20 01:49:55;;;;;;;13.93;10.38;;;;;;;20.58;74.87;99756.78;1493257;87;21448;-87
2022/08/20 01:52:42;;;;;;;14.35;9.50;;;;;;;20.53;75.64;99759.34;1479489;88;21926;-87
2022/08/20 01:55:09;;;;;;;15.95;9.00;;;;;;;20.50;75.72;99756.02;1489958;88;21596;-86
2022/08/20 01:57:37;;;;;;;12.13;8.98;;;;;;;20.51;75.54;99749.61;1489190;88;21543;-85
2022/08/20 02:00:09;;;;;;;14.35;10.32;;;;;;;20.51;75.27;99747.42;1487859;87;21501;-86
2022/08/20 02:02:35;;;;;;;12.40;10.13;;;;;;;20.50;75.48;99749.83;1489247;87;21478;-86
2022/08/20 02:05:01;;;;;;;17.70;10.10;;;;;;;20.45;75.41;99748.34;1482884;88;23463;-86
2022/08/20 02:07:31;;;;;;;13.43;9.50;;;;;;;20.43;75.72;99754.48;1483989;88;21404;-85
2022/08/20 02:09:55;;;;;;;17.43;10.83;;;;;;;20.44;76.01;99758.81;1481191;87;21448;-85
2022/08/20 02:12:21;;;;;;;10.43;9.33;;;;;;;20.46;75.67;99752.16;1485659;87;21685;-85
2022/08/20 02:14:52;;;;;;;12.63;9.58;;;;;;;20.50;75.83;99760.58;1486572;87;21521;-85
2022/08/20 02:17:21;;;;;;;12.03;9.80;;;;;;;20.52;75.84;99761.17;1493036;87;21448;-85
2022/08/20 02:19:59;;;;;;;18.82;9.60;;;;;;;20.55;75.32;99750.00;1482763;87;21507;-83
2022/08/20 02:22:36;;;;;;;17.57;10.50;;;;;;;20.46;76.24;99750.00;1482880;88;21448;-85
2022/08/20 02:25:07;;;;;;;12.53;10.90;;;;;;;20.44;75.51;99752.09;1483874;88;21632;-85
2022/08/20 02:27:35;;;;;;;24.17;10.00;;;;;;;20.40;75.75;99749.05;1480558;88;21521;-85
2022/08/20 02:30:09;;;;;;;14.50;9.28;;;;;;;20.40;76.12;99752.23;1481962;87;21470;-85
2022/08/20 02:32:36;;;;;;;14.23;9.80;;;;;;;20.38;76.30;99751.66;1486587;87;21631;-85
2022/08/20 02:35:11;;;;;;;15.45;10.23;;;;;;;20.36;76.36;99749.72;1485589;87;22343;-84
2022/08/20 02:37:40;;;;;;;10.75;9.60;;;;;;;20.35;76.32;99752.12;1492241;87;21396;-86
2022/08/20 02:40:11;;;;;;;16.40;10.28;;;;;;;20.26;76.25;99744.38;1485367;87;21514;-86
2022/08/20 02:42:42;;;;;;;16.50;11.15;;;;;;;20.18;76.35;99741.18;1473494;88;22587;-85
2022/08/20 02:45:09;;;;;;;16.95;11.00;;;;;;;20.11;76.49;99744.47;1478659;87;21640;-82
2022/08/20 02:47:35;;;;;;;10.23;9.10;;;;;;;20.08;76.60;99745.73;1479844;88;22305;-84
2022/08/20 02:50:01;;;;;;;14.37;9.77;;;;;;;20.06;77.05;99746.50;1496304;87;21404;-84
2022/08/20 02:52:27;;;;;;;18.57;10.05;;;;;;;20.09;77.29;99747.92;1483324;88;22350;-82
2022/08/20 02:54:53;;;;;;;12.37;9.78;;;;;;;20.11;77.13;99748.49;1474837;88;21508;-83
2022/08/20 02:57:19;;;;;;;12.75;9.78;;;;;;;20.06;77.65;99754.56;1487259;87;21787;-80
2022/08/20 02:59:47;;;;;;;19.17;10.05;;;;;;;20.02;77.38;99758.23;1486317;87;21544;-85
2022/08/20 03:02:15;;;;;;;12.20;10.25;;;;;;;20.03;77.32;99755.83;1482979;88;21456;-84
2022/08/20 03:04:41;;;;;;;15.67;10.73;;;;;;;20.04;77.22;99758.80;1484547;87;21573;-85
2022/08/20 03:07:10;;;;;;;16.73;10.82;;;;;;;20.04;77.03;99764.70;1487465;88;22269;-83
2022/08/20 03:09:38;;;;;;;19.23;10.50;;;;;;;20.03;78.03;99757.17;1485050;88;21552;-83
2022/08/20 03:12:06;;;;;;;12.23;10.90;;;;;;;20.00;77.81;99760.31;1476277;88;22321;-83
2022/08/20 03:14:34;;;;;;;18.83;11.03;;;;;;;19.97;77.79;99758.08;1481740;88;21390;-82
2022/08/20 03:17:01;;;;;;;14.63;9.80;;;;;;;19.92;78.16;99759.27;1470251;87;21708;-83
2022/08/20 03:19:28;;;;;;;10.43;9.33;;;;;;;19.91;78.22;99754.11;1477053;87;22512;-83
2022/08/20 03:21:54;;;;;;;17.27;10.77;;;;;;;19.89;78.06;99755.70;1479407;87;21404;-84
2022/08/20 03:24:21;;;;;;;15.13;11.07;;;;;;;19.82;79.22;99750.91;1478367;87;21442;-81
2022/08/20 03:26:47;;;;;;;11.83;9.50;;;;;;;19.80;79.59;99753.02;1474044;88;21523;-82
2022/08/20 03:29:13;;;;;;;14.10;10.23;;;;;;;19.76;79.71;99744.56;1473464;87;22059;-81
2022/08/20 03:31:39;;;;;;;14.40;9.80;;;;;;;19.73;80.05;99734.28;1470780;87;21493;-84
2022/08/20 03:34:06;;;;;;;12.63;9.60;;;;;;;19.70;80.99;99739.28;1479007;88;21574;-84
2022/08/20 03:36:32;;;;;;;19.83;9.50;;;;;;;19.68;81.40;99732.81;1471753;88;21462;-85
2022/08/20 03:39:02;;;;;;;14.63;8.77;;;;;;;19.69;81.90;99734.45;1467570;87;22359;-80
2022/08/20 03:41:30;;;;;;;15.90;9.83;;;;;;;19.69;82.47;99737.13;1480694;87;22492;-85
2022/08/20 03:43:57;;;;;;;14.53;10.33;;;;;;;19.67;81.96;99739.73;1475426;88;21556;-83
2022/08/20 03:46:24;;;;;;;13.30;10.23;;;;;;;19.69;82.30;99738.47;1476277;87;21605;-85
2022/08/20 03:48:52;;;;;;;18.30;10.00;;;;;;;19.71;82.16;99744.45;1473059;88;21582;-85
2022/08/20 03:51:18;;;;;;;18.62;10.35;;;;;;;19.72;83.03;99747.42;1471961;87;21552;-86
2022/08/20 03:53:43;;;;;;;17.27;9.00;;;;;;;19.77;82.74;99759.66;1468169;87;22057;-87
2022/08/20 03:56:10;;;;;;;17.60;9.28;;;;;;;19.87;81.95;99774.41;1474368;87;21451;-86
2022/08/20 03:58:36;;;;;;;17.48;9.05;;;;;;;19.95;81.26;99774.93;1475600;88;21485;-86
2022/08/20 04:01:05;;;;;;;15.13;8.63;;;;;;;20.03;80.75;99768.45;1471473;88;21611;-86
2022/08/20 04:03:32;;;;;;;14.80;9.43;;;;;;;20.10;80.71;99768.36;1485914;88;22483;-87
2022/08/20 04:05:58;;;;;;;18.02;9.13;;;;;;;20.08;80.89;99767.22;1473968;87;21426;-85
2022/08/20 04:08:32;;;;;;;11.85;10.15;;;;;;;20.07;80.47;99760.22;1471819;87;21485;-86
2022/08/20 04:10:58;;;;;;;11.55;9.73;;;;;;;20.04;80.94;99762.02;1475618;87;21456;-86
2022/08/20 04:13:27;;;;;;;18.05;10.75;;;;;;;20.04;81.32;99762.02;1476313;87;22550;-86
2022/08/20 04:15:54;;;;;;;19.62;10.58;;;;;;;20.06;81.00;99769.33;1469578;87;21559;-82
2022/08/20 04:18:24;;;;;;;16.20;9.23;;;;;;;20.08;81.33;99765.88;1472638;87;21574;-84
2022/08/20 04:20:53;;;;;;;23.00;9.88;;;;;;;20.15;81.10;99765.81;1472480;87;21434;-82
2022/08/20 04:23:20;;;;;;;18.55;9.05;;;;;;;20.25;80.61;99766.92;1477806;87;22228;-84
2022/08/20 04:25:48;;;;;;;13.90;9.78;;;;;;;20.31;80.20;99760.33;1475019;88;21456;-82
2022/08/20 04:28:29;;;;;;;14.15;9.80;;;;;;;20.34;80.22;99755.83;1468204;87;22358;-82
2022/08/20 04:30:58;;;;;;;15.80;9.70;;;;;;;20.35;80.95;99758.84;1468809;87;21419;-83
2022/08/20 04:33:27;;;;;;;14.98;8.90;;;;;;;20.39;80.46;99747.91;1474724;87;21471;-84
2022/08/20 04:35:54;;;;;;;17.62;8.63;;;;;;;20.39;80.94;99745.23;1471045;87;21486;-82
2022/08/20 04:38:22;;;;;;;13.48;8.63;;;;;;;20.45;80.97;99738.94;1476042;88;21411;-84
2022/08/20 04:40:57;;;;;;;17.87;8.40;;;;;;;20.52;81.50;99735.64;1484625;87;21419;-82
2022/08/20 04:43:32;;;;;;;14.55;8.78;;;;;;;20.63;80.80;99741.61;1478261;87;21428;-84
2022/08/20 04:46:04;;;;;;;12.60;8.65;;;;;;;20.77;80.85;99744.07;1465160;87;21701;-82
2022/08/20 04:48:32;;;;;;;21.27;9.63;;;;;;;20.88;79.84;99744.09;1455467;88;21641;-84
2022/08/20 04:51:01;;;;;;;9.60;8.15;;;;;;;21.00;79.46;99740.06;1477972;87;21383;-88
2022/08/20 04:53:28;;;;;;;12.15;8.55;;;;;;;21.12;79.42;99741.45;1471558;88;21566;-89
2022/08/20 04:55:58;;;;;;;14.58;9.40;;;;;;;21.24;79.20;99742.80;1464676;87;21516;-89
2022/08/20 04:58:38;;;;;;;15.03;9.33;;;;;;;21.34;78.80;99739.78;1454731;89;22051;-88
2022/08/20 05:01:08;;;;;;;17.73;9.10;;;;;;;21.43;78.10;99744.31;1456589;90;21473;-89
2022/08/20 05:03:38;;;;;;;26.68;9.38;;;;;;;21.48;77.83;99743.09;1454974;90;21519;-88
2022/08/20 05:06:07;;;;;;;16.70;10.45;;;;;;;21.51;77.96;99739.92;1453044;90;21665;-87
2022/08/20 05:08:34;;;;;;;24.37;9.03;;;;;;;21.57;78.04;99737.62;1458842;89;22545;-87
2022/08/20 05:11:02;;;;;;;12.95;8.65;;;;;;;21.62;78.02;99737.74;1457539;89;22397;-87
2022/08/20 05:13:28;;;;;;;20.92;7.72;;;;;;;21.70;77.74;99729.02;1460984;89;21568;-83
2022/08/20 05:15:56;;;;;;;20.02;9.30;;;;;;;21.80;77.29;99724.64;1458598;88;22315;-86
2022/08/20 05:18:25;;;;;;;15.35;9.35;;;;;;;21.90;76.79;99726.75;1461428;88;22411;-87
2022/08/20 05:20:52;;;;;;;18.32;9.03;;;;;;;22.00;76.40;99728.27;1454091;88;21398;-86
2022/08/20 05:23:20;;;;;;;11.53;8.38;;;;;;;22.06;75.93;99727.31;1462973;89;21693;-86
2022/08/20 05:25:51;;;;;;;15.95;9.10;;;;;;;22.16;75.80;99713.77;1457309;89;21473;-88
2022/08/20 05:28:23;;;;;;;19.80;7.83;;;;;;;22.29;75.79;99709.44;1461452;89;22718;-83
2022/08/20 05:30:51;;;;;;;14.87;9.05;;;;;;;22.39;75.20;99704.25;1459377;89;21472;-86
2022/08/20 05:33:21;;;;;;;16.30;7.30;;;;;;;22.49;74.48;99695.51;1458332;89;21414;-86
2022/08/20 05:35:51;;;;;;;11.93;8.78;;;;;;;22.63;74.02;99700.06;1460127;89;21494;-84
2022/08/20 05:38:20;;;;;;;;;;;;;;;22.73;73.61;99692.15;1450871;89;21568;-84
2022/08/20 05:40:47;;;;;;;19.07;8.65;;;;;;;22.78;72.74;99683.30;1458369;89;20379;-84
2022/08/20 05:43:14;;;;;;;10.32;8.58;;;;;;;22.88;72.53;99680.78;1424176;89;22462;-84
2022/08/20 05:45:44;;;;;;;11.00;7.17;;;;;;;22.95;72.07;99678.20;1452728;88;21458;-85
2022/08/20 05:48:15;;;;;;;12.18;7.50;;;;;;;23.05;72.12;99675.39;1459831;89;21450;-85
2022/08/20 05:50:44;;;;;;;16.80;6.80;;;;;;;23.14;71.73;99678.77;1455881;88;22396;-89
2022/08/20 05:53:11;;;;;;;12.75;7.87;;;;;;;23.26;70.54;99677.30;1457170;89;21554;-84
2022/08/20 05:55:38;;;;;;;14.28;8.70;;;;;;;23.38;70.33;99680.70;1457538;89;21465;-84
2022/08/20 05:58:09;;;;;;;26.50;10.32;;;;;;;23.53;70.13;99680.61;1460644;89;21436;-85
2022/08/20 06:00:36;;;;;;;9.85;7.78;;;;;;;23.63;69.57;99687.50;1458899;89;21641;-86
2022/08/20 06:05:47;;;;;;;10.25;6.85;;;;;;;23.85;68.65;99701.86;1455882;88;21524;-83
2022/08/20 06:08:15;;;;;;;10.70;6.92;;;;;;;23.99;67.81;99697.39;1456642;88;21458;-84
2022/08/20 06:10:43;;;;;;;8.30;6.78;;;;;;;24.14;67.69;99696.23;1463124;88;21553;-85
2022/08/20 06:13:10;;;;;;;10.15;6.95;;;;;;;24.28;66.99;99705.56;1459490;89;21480;-84
2022/08/20 06:15:37;;;;;;;13.15;7.83;;;;;;;24.43;65.47;99710.87;1458473;88;21569;-84
2022/08/20 06:18:06;;;;;;;13.65;6.72;;;;;;;24.59;65.96;99710.45;1455637;89;21435;-84
2022/08/20 06:20:36;;;;;;;16.10;7.37;;;;;;;24.72;65.10;99712.20;1467638;89;21575;-86
2022/08/20 06:23:04;;;;;;;11.43;6.65;;;;;;;24.89;64.70;99720.73;1461303;88;21428;-84
2022/08/20 06:25:33;;;;;;;11.55;6.25;;;;;;;25.01;62.85;99728.12;1463167;89;21487;-85
2022/08/20 06:28:02;;;;;;;10.60;5.75;;;;;;;25.21;63.22;99732.34;1457138;89;21465;-82
2022/08/20 06:30:29;;;;;;;13.10;7.12;;;;;;;25.27;60.00;99736.45;1446188;89;21531;-82
2022/08/20 06:32:55;;;;;;;12.53;6.05;;;;;;;25.46;61.61;99735.45;1458648;89;21449;-81
2022/08/20 06:35:21;;;;;;;16.27;6.87;;;;;;;25.62;61.92;99742.05;1461656;88;21450;-82
2022/08/20 06:37:47;;;;;;;12.85;6.55;;;;;;;25.72;60.88;99742.66;1456115;89;21436;-82
2022/08/20 06:40:37;;;;;;;15.50;6.25;;;;;;;25.80;60.03;99752.16;1457865;89;22379;-80
2022/08/20 06:43:03;;;;;;;18.25;8.35;;;;;;;25.93;59.78;99738.70;1462242;89;21457;-82
2022/08/20 06:45:32;;;;;;;6.55;5.55;;;;;;;26.10;59.92;99737.95;1455623;89;21458;-82
2022/08/20 06:48:03;;;;;;;9.85;6.12;;;;;;;26.26;59.50;99736.88;1456548;89;22917;-86
2022/08/20 06:50:38;;;;;;;13.78;6.70;;;;;;;26.44;59.20;99735.58;1424985;91;21429;-85
2022/08/20 06:53:08;;;;;;;8.30;5.35;;;;;;;26.60;58.55;99732.91;1461032;89;21450;-85
2022/08/20 06:55:38;;;;;;;10.72;6.00;;;;;;;26.71;57.00;99731.83;1456287;89;22865;-86
2022/08/20 06:58:08;;;;;;;11.90;5.53;;;;;;;26.88;57.02;99731.56;1464527;89;21482;-83
2022/08/20 07:00:37;;;;;;;10.58;6.42;;;;;;;27.00;56.31;99735.61;1456841;89;21539;-85
2022/08/20 07:03:04;;;;;;;15.93;6.60;;;;;;;27.18;56.64;99732.09;1455160;89;21428;-83
2022/08/20 07:05:35;;;;;;;10.58;6.22;;;;;;;27.32;55.99;99735.05;1455368;89;21449;-84
2022/08/20 07:08:03;;;;;;;16.02;5.72;;;;;;;27.35;52.59;99740.74;1464115;89;21516;-85
2022/08/20 07:10:29;;;;;;;10.55;5.92;;;;;;;27.48;53.92;99745.32;1458968;88;21546;-85
2022/08/20 07:12:58;;;;;;;14.20;5.72;;;;;;;27.49;51.39;99749.69;1450504;88;22641;-82
2022/08/20 07:15:24;;;;;;;11.88;5.30;;;;;;;27.58;53.38;99747.47;1447908;89;21509;-82
2022/08/20 07:17:58;;;;;;;16.75;5.47;;;;;;;27.71;53.10;99751.53;1445435;90;21650;-84
2022/08/20 07:20:25;;;;;;;14.10;5.75;;;;;;;27.87;53.28;99750.38;1458680;89;21598;-84
2022/08/20 07:22:51;;;;;;;14.35;6.08;;;;;;;28.04;52.60;99757.39;1455059;89;22226;-84
2022/08/20 07:25:20;;;;;;;7.40;5.17;;;;;;;28.18;52.35;99759.77;1455601;89;21516;-84
2022/08/20 07:27:50;;;;;;;9.15;5.75;;;;;;;28.24;52.19;99755.92;1444608;89;21542;-83
2022/08/20 07:33:09;;;;;;;15.13;5.92;;;;;;;28.46;51.69;99766.98;1450386;90;22087;-84
2022/08/20 07:35:35;;;;;;;10.45;5.80;;;;;;;28.60;51.37;99767.14;1464938;88;21433;-84
2022/08/20 07:38:01;;;;;;;12.15;5.78;;;;;;;28.71;50.91;99764.06;1473159;88;21603;-84
2022/08/20 07:40:30;;;;;;;24.65;6.25;;;;;;;28.81;50.92;99763.74;1476527;87;21582;-84
2022/08/20 07:42:59;;;;;;;15.20;5.65;;;;;;;28.90;50.55;99763.39;1470860;87;21353;-84
2022/08/20 07:45:27;;;;;;;7.42;5.60;;;;;;;29.03;50.26;99765.47;1475946;87;21507;-85
2022/08/20 07:47:54;;;;;;;14.73;5.87;;;;;;;29.11;49.60;99769.49;1471581;88;21419;-84
2022/08/20 07:50:25;;;;;;;8.50;5.70;;;;;;;29.18;49.80;99774.88;1478912;88;21545;-85
2022/08/20 07:52:52;;;;;;;12.60;5.35;;;;;;;29.26;49.55;99779.43;1476500;88;21575;-86
2022/08/20 07:55:20;;;;;;;10.95;5.75;;;;;;;29.30;49.15;99772.33;1473691;87;21486;-85
2022/08/20 07:57:49;;;;;;;11.60;5.47;;;;;;;29.12;47.57;99765.13;1473520;87;21561;-82
2022/08/20 08:00:18;;;;;;;8.03;6.05;;;;;;;29.20;48.62;99763.67;1469904;88;21456;-85
2022/08/20 08:02:45;;;;;;;18.32;5.65;;;;;;;29.35;48.38;99760.83;1467773;87;21582;-85
2022/08/20 08:05:11;;;;;;;15.20;5.72;;;;;;;29.43;48.06;99760.20;1474001;87;22959;-85
2022/08/20 08:07:38;;;;;;;16.85;6.85;;;;;;;29.55;48.23;99754.34;1472906;87;21398;-84
2022/08/20 08:10:09;;;;;;;12.82;5.75;;;;;;;29.72;48.28;99750.34;1476827;87;22581;-84
2022/08/20 08:12:40;;;;;;;12.95;6.42;;;;;;;29.85;48.02;99746.92;1481483;87;21626;-85
2022/08/20 08:15:11;;;;;;;16.67;5.90;;;;;;;29.94;47.52;99747.89;1487824;87;21522;-85
2022/08/20 08:17:38;;;;;;;11.12;4.80;;;;;;;29.99;46.99;99750.55;1484066;88;21367;-85
2022/08/20 08:20:07;;;;;;;11.70;5.70;;;;;;;30.08;46.78;99754.25;1486216;88;22371;-84
2022/08/20 08:22:33;;;;;;;10.80;5.47;;;;;;;30.18;46.34;99754.65;1491703;87;21640;-85
2022/08/20 08:25:01;;;;;;;9.48;4.90;;;;;;;30.12;45.63;99748.48;1487394;88;22150;-85
2022/08/20 08:27:34;;;;;;;8.63;4.85;;;;;;;30.12;45.45;99752.58;1477212;87;23386;-85
2022/08/20 08:30:01;;;;;;;15.28;5.83;;;;;;;30.18;45.49;99749.19;1480010;87;21492;-84
2022/08/20 08:32:30;;;;;;;13.62;5.40;;;;;;;30.19;45.21;99748.66;1470928;88;21603;-84
2022/08/20 08:34:57;;;;;;;15.03;6.33;;;;;;;30.18;44.85;99751.11;1485231;88;21595;-83
2022/08/20 08:37:24;;;;;;;11.45;5.40;;;;;;;30.22;45.26;99748.10;1492105;88;21633;-83
2022/08/20 08:39:49;;;;;;;13.00;5.92;;;;;;;30.39;45.32;99742.94;1489569;88;21632;-85
2022/08/20 08:42:45;;;;;;;12.80;5.78;;;;;;;30.49;45.19;99744.69;1483365;88;21507;-84
2022/08/20 08:45:17;;;;;;;11.48;5.58;;;;;;;30.55;44.96;99741.58;1483274;87;22460;-85
2022/08/20 08:47:44;;;;;;;10.23;5.75;;;;;;;30.64;44.89;99739.54;1475492;87;21448;-83
2022/08/20 08:50:18;;;;;;;12.95;6.12;;;;;;;30.63;45.09;99742.83;1467852;88;21471;-84
2022/08/20 08:52:45;;;;;;;12.70;5.70;;;;;;;30.62;43.79;99741.78;1486194;88;22497;-83
2022/08/20 08:55:16;;;;;;;17.60;5.40;;;;;;;30.63;43.82;99742.02;1482827;88;21463;-83
2022/08/20 08:57:43;;;;;;;11.80;5.30;;;;;;;30.75;44.06;99734.98;1475739;88;21383;-83
2022/08/20 09:00:15;;;;;;;16.85;5.78;;;;;;;30.99;43.99;99730.80;1488573;87;21538;-83
2022/08/20 09:03:10;;;;;;;11.35;5.37;;;;;;;31.20;43.81;99722.22;1479228;88;21522;-84
2022/08/20 09:05:42;;;;;;;10.23;5.97;;;;;;;31.26;43.13;99714.17;1484488;87;21389;-87
2022/08/20 09:08:12;;;;;;;12.60;6.30;;;;;;;31.51;43.51;99710.17;1486462;88;21478;-87
2022/08/20 09:10:38;;;;;;;10.08;4.83;;;;;;;31.70;43.21;99701.83;1483741;87;21522;-86
2022/08/20 09:13:06;;;;;;;10.53;5.62;;;;;;;31.95;42.56;99702.45;1480837;87;21472;-85
2022/08/20 09:15:32;;;;;;;7.00;5.12;;;;;;;32.12;41.08;99703.41;1475269;87;21538;-86
2022/08/20 09:17:58;;;;;;;11.48;5.87;;;;;;;31.91;40.36;99696.22;1473394;87;21545;-86
2022/08/20 09:20:24;;;;;;;8.25;5.20;;;;;;;32.03;41.26;99707.20;1472574;87;22086;-86
2022/08/20 09:22:50;;;;;;;19.87;6.08;;;;;;;32.19;41.71;99691.22;1471222;88;21455;-86
2022/08/20 09:25:18;;;;;;;8.58;4.67;;;;;;;32.38;41.74;99692.42;1473784;88;22510;-86
2022/08/20 09:27:44;;;;;;;11.73;4.90;;;;;;;32.31;39.79;99681.35;1483403;88;22329;-84
2022/08/20 09:30:12;;;;;;;7.87;5.10;;;;;;;32.39;40.92;99678.97;1474767;87;21513;-85
2022/08/20 09:32:38;;;;;;;10.35;5.15;;;;;;;32.44;40.31;99674.75;1472357;87;21515;-84
2022/08/20 09:35:05;;;;;;;8.10;4.72;;;;;;;32.45;40.36;99667.61;1469852;88;21515;-87
2022/08/20 09:37:32;;;;;;;17.85;4.60;;;;;;;32.56;41.01;99655.84;1468936;87;21441;-86
2022/08/20 09:39:59;;;;;;;9.20;4.45;;;;;;;32.53;39.80;99660.02;1474691;88;22272;-86
2022/08/20 09:42:29;;;;;;;15.55;4.80;;;;;;;32.57;40.55;99667.87;1484586;88;21464;-86
2022/08/20 09:44:56;;;;;;;12.35;4.85;;;;;;;32.64;39.66;99663.88;1463214;87;21346;-86
2022/08/20 09:47:23;;;;;;;12.55;4.78;;;;;;;32.65;40.25;99665.48;1456522;88;21546;-86
2022/08/20 09:49:50;;;;;;;14.03;4.65;;;;;;;32.68;40.14;99669.77;1442213;89;21473;-84
2022/08/20 09:52:33;;;;;;;9.05;4.28;;;;;;;32.71;39.25;99669.14;1460853;89;21370;-80
2022/08/20 09:55:04;;;;;;;11.53;5.20;;;;;;;32.63;39.89;99663.07;1453162;89;21546;-84
2022/08/20 09:57:31;;;;;;;14.53;5.28;;;;;;;32.69;39.93;99667.30;1456937;89;21480;-84
2022/08/20 10:00:07;;;;;;;13.62;4.85;;;;;;;32.72;39.90;99680.36;1441435;90;22486;-83
2022/08/20 10:02:33;;;;;;;13.18;4.47;;;;;;;32.87;39.12;99679.72;1461928;89;21576;-82
2022/08/20 10:04:59;;;;;;;10.20;5.03;;;;;;;32.88;39.06;99682.13;1456387;89;22436;-80
2022/08/20 10:07:25;;;;;;;5.90;4.85;;;;;;;33.03;39.07;99685.88;1439099;89;21502;-83
2022/08/20 10:10:04;;;;;;;9.98;4.20;;;;;;;33.08;38.99;99692.34;1448714;90;22178;-84
2022/08/20 10:12:33;;;;;;;13.45;5.08;;;;;;;33.11;39.16;99693.88;1459465;88;21449;-83
2022/08/20 10:15:00;;;;;;;8.10;4.37;;;;;;;33.20;39.07;99696.12;1456967;89;21530;-85
2022/08/20 10:17:26;;;;;;;14.33;4.45;;;;;;;33.31;38.50;99693.88;1456809;89;21656;-84
2022/08/20 10:19:52;;;;;;;8.40;4.70;;;;;;;33.47;37.72;99697.81;1461048;89;21450;-82
2022/08/20 10:22:18;;;;;;;13.10;5.90;;;;;;;33.60;37.69;99695.28;1456607;90;21492;-84
2022/08/20 10:24:44;;;;;;;10.35;5.37;;;;;;;33.79;38.10;99690.33;1448686;89;22491;-83
2022/08/20 10:27:11;;;;;;;8.38;5.00;;;;;;;34.00;38.00;99697.94;1452004;89;21419;-85
2022/08/20 10:29:37;;;;;;;12.35;5.12;;;;;;;34.21;37.15;99694.02;1447954;89;21465;-85
2022/08/20 10:32:13;;;;;;;18.60;5.67;;;;;;;34.36;37.14;99693.54;1453059;90;22300;-84
2022/08/20 10:34:42;;;;;;;8.85;4.37;;;;;;;34.47;36.94;99689.88;1454304;89;21530;-84
2022/08/20 10:37:09;;;;;;;8.00;4.53;;;;;;;34.39;35.46;99688.77;1455886;89;21656;-85
2022/08/20 10:39:35;;;;;;;12.40;5.28;;;;;;;34.37;36.46;99691.02;1458534;89;21560;-84
2022/08/20 10:42:01;;;;;;;9.38;5.15;;;;;;;34.50;36.12;99683.19;1447967;89;22351;-85
2022/08/20 10:44:27;;;;;;;8.15;4.60;;;;;;;34.63;36.59;99681.97;1454616;90;22644;-85
2022/08/20 10:46:54;;;;;;;14.00;5.40;;;;;;;34.76;36.15;99682.36;1452806;89;21671;-85
2022/08/20 10:49:19;;;;;;;10.88;5.20;;;;;;;34.76;35.50;99673.54;1455662;89;21641;-84
2022/08/20 10:51:46;;;;;;;12.98;4.70;;;;;;;34.94;35.80;99674.28;1453632;89;21448;-84
2022/08/20 10:54:11;;;;;;;11.90;4.72;;;;;;;35.07;35.73;99666.17;1456639;90;21441;-81
2022/08/20 10:56:38;;;;;;;9.08;4.95;;;;;;;35.09;34.69;99661.16;1457518;90;21471;-84
2022/08/20 10:59:04;;;;;;;10.90;5.00;;;;;;;35.25;35.28;99662.23;1451157;90;22565;-85
2022/08/20 11:01:30;;;;;;;8.65;5.20;;;;;;;35.40;35.00;99664.41;1445974;89;21587;-85
2022/08/20 11:03:56;;;;;;;9.83;4.62;;;;;;;35.49;34.50;99651.97;1453908;89;21531;-85
2022/08/20 11:06:22;;;;;;;8.13;4.47;;;;;;;35.58;34.54;99655.50;1455458;89;21538;-84
2022/08/20 11:08:48;;;;;;;12.28;5.37;;;;;;;35.59;34.35;99646.67;1457621;89;21413;-84
2022/08/20 11:11:14;;;;;;;9.43;5.20;;;;;;;35.55;33.81;99646.53;1449700;89;21441;-84
2022/08/20 11:13:40;;;;;;;9.58;5.10;;;;;;;35.62;34.02;99630.86;1450720;89;22359;-84
2022/08/20 11:16:06;;;;;;;11.25;4.80;;;;;;;35.67;34.17;99626.55;1452828;89;21552;-84
2022/08/20 11:18:32;;;;;;;11.80;4.90;;;;;;;35.67;33.44;99617.71;1449475;90;21471;-85
2022/08/20 11:20:59;;;;;;;11.33;4.85;;;;;;;35.76;34.36;99620.97;1451243;89;21398;-85
2022/08/20 11:23:26;;;;;;;11.78;4.67;;;;;;;35.57;32.61;99611.83;1449318;89;22307;-84
2022/08/20 11:25:53;;;;;;;8.38;4.42;;;;;;;35.37;33.47;99613.37;1458808;89;21464;-83
2022/08/20 11:28:29;;;;;;;8.63;4.85;;;;;;;35.42;34.02;99608.49;1457199;89;21545;-84
2022/08/20 11:30:53;;;;;;;13.32;5.12;;;;;;;35.48;33.56;99605.78;1445617;90;21457;-84
2022/08/20 11:33:19;;;;;;;9.88;5.25;;;;;;;35.56;33.59;99612.95;1455076;90;21472;-83
2022/08/20 11:35:45;;;;;;;18.12;5.85;;;;;;;35.56;34.02;99610.19;1463087;88;21404;-83
2022/08/20 11:38:12;;;;;;;12.98;5.80;;;;;;;35.69;34.16;99610.52;1458336;89;21465;-85
2022/08/20 11:40:38;;;;;;;12.40;4.55;;;;;;;35.66;33.61;99605.68;1456778;89;21443;-85